Aviation Digital Data Service (ADDS)

Output produced by TAFs form (1158 UTC 21 October 2014)
found at http://aviationweather.gov/adds/tafs/
 
KAMA 211135Z 2112/2212 VRB04KT P6SM SCT120 
     FM211700 19013KT P6SM SCT050 BKN250 
     FM220000 17010KT P6SM BKN050